sensor_id;sensor_type;location;lat;lon;timestamp;temperature;humidity
8953;DHT22;4511;50.890;8.054;2023-07-31T00:00:58;16.40;99.90
8953;DHT22;4511;50.890;8.054;2023-07-31T00:03:25;16.50;99.90
8953;DHT22;4511;50.890;8.054;2023-07-31T00:05:51;16.50;99.90
8953;DHT22;4511;50.890;8.054;2023-07-31T00:08:18;16.40;99.90
8953;DHT22;4511;50.890;8.054;2023-07-31T00:10:45;15.90;99.90
8953;DHT22;4511;50.890;8.054;2023-07-31T00:13:13;16.20;99.90
8953;DHT22;4511;50.890;8.054;2023-07-31T00:15:40;16.10;99.90
8953;DHT22;4511;50.890;8.054;2023-07-31T00:18:07;16.10;99.90
8953;DHT22;4511;50.890;8.054;2023-07-31T00:20:34;16.10;99.90
8953;DHT22;4511;50.890;8.054;2023-07-31T00:23:01;15.90;99.90
8953;DHT22;4511;50.890;8.054;2023-07-31T00:25:27;15.90;99.90
8953;DHT22;4511;50.890;8.054;2023-07-31T00:27:54;16.00;99.90
8953;DHT22;4511;50.890;8.054;2023-07-31T00:30:22;16.00;99.90
8953;DHT22;4511;50.890;8.054;2023-07-31T00:32:50;16.00;99.90
8953;DHT22;4511;50.890;8.054;2023-07-31T00:35:17;16.00;99.90
8953;DHT22;4511;50.890;8.054;2023-07-31T00:37:44;16.00;99.90
8953;DHT22;4511;50.890;8.054;2023-07-31T00:40:11;16.00;99.90
8953;DHT22;4511;50.890;8.054;2023-07-31T00:42:39;16.00;99.90
8953;DHT22;4511;50.890;8.054;2023-07-31T00:45:06;15.90;99.90
8953;DHT22;4511;50.890;8.054;2023-07-31T00:47:34;16.00;99.90
8953;DHT22;4511;50.890;8.054;2023-07-31T00:50:01;16.00;99.90
8953;DHT22;4511;50.890;8.054;2023-07-31T00:52:29;16.10;99.90
8953;DHT22;4511;50.890;8.054;2023-07-31T00:54:55;16.00;99.90
8953;DHT22;4511;50.890;8.054;2023-07-31T00:57:22;15.80;99.90
8953;DHT22;4511;50.890;8.054;2023-07-31T00:59:49;15.90;99.90
8953;DHT22;4511;50.890;8.054;2023-07-31T01:02:16;15.90;99.90
8953;DHT22;4511;50.890;8.054;2023-07-31T01:04:45;15.90;99.90
8953;DHT22;4511;50.890;8.054;2023-07-31T01:07:22;15.90;99.90
8953;DHT22;4511;50.890;8.054;2023-07-31T01:10:06;15.90;99.90
8953;DHT22;4511;50.890;8.054;2023-07-31T01:12:34;15.90;99.90
8953;DHT22;4511;50.890;8.054;2023-07-31T01:15:04;15.80;99.90
8953;DHT22;4511;50.890;8.054;2023-07-31T01:17:31;15.70;99.90
8953;DHT22;4511;50.890;8.054;2023-07-31T01:20:03;15.80;99.90
8953;DHT22;4511;50.890;8.054;2023-07-31T01:22:47;15.80;99.90
8953;DHT22;4511;50.890;8.054;2023-07-31T01:25:26;15.80;99.90
8953;DHT22;4511;50.890;8.054;2023-07-31T01:28:01;15.90;99.90
8953;DHT22;4511;50.890;8.054;2023-07-31T01:30:32;15.80;99.90
8953;DHT22;4511;50.890;8.054;2023-07-31T01:33:01;15.80;99.90
8953;DHT22;4511;50.890;8.054;2023-07-31T01:35:32;15.80;99.90
8953;DHT22;4511;50.890;8.054;2023-07-31T01:37:59;15.90;99.90
8953;DHT22;4511;50.890;8.054;2023-07-31T01:40:25;15.80;99.90
8953;DHT22;4511;50.890;8.054;2023-07-31T01:42:52;15.80;99.90
8953;DHT22;4511;50.890;8.054;2023-07-31T01:45:21;15.80;99.90
8953;DHT22;4511;50.890;8.054;2023-07-31T01:47:47;15.80;99.90
8953;DHT22;4511;50.890;8.054;2023-07-31T01:50:14;15.80;99.90
8953;DHT22;4511;50.890;8.054;2023-07-31T01:52:41;15.80;99.90
8953;DHT22;4511;50.890;8.054;2023-07-31T01:55:08;15.80;99.90
8953;DHT22;4511;50.890;8.054;2023-07-31T01:57:36;15.90;99.90
8953;DHT22;4511;50.890;8.054;2023-07-31T02:00:04;15.90;99.90
8953;DHT22;4511;50.890;8.054;2023-07-31T02:02:33;15.80;99.90
8953;DHT22;4511;50.890;8.054;2023-07-31T02:05:00;15.80;99.90
8953;DHT22;4511;50.890;8.054;2023-07-31T02:07:28;15.90;99.90
8953;DHT22;4511;50.890;8.054;2023-07-31T02:09:55;15.90;99.90
8953;DHT22;4511;50.890;8.054;2023-07-31T02:12:22;15.90;99.90
8953;DHT22;4511;50.890;8.054;2023-07-31T02:14:49;15.80;99.90
8953;DHT22;4511;50.890;8.054;2023-07-31T02:17:16;15.90;99.90
8953;DHT22;4511;50.890;8.054;2023-07-31T02:19:44;15.70;99.90
8953;DHT22;4511;50.890;8.054;2023-07-31T02:22:11;15.70;99.90
8953;DHT22;4511;50.890;8.054;2023-07-31T02:24:37;15.80;99.90
8953;DHT22;4511;50.890;8.054;2023-07-31T02:27:05;15.90;99.90
8953;DHT22;4511;50.890;8.054;2023-07-31T02:29:32;15.80;99.90
8953;DHT22;4511;50.890;8.054;2023-07-31T02:31:58;15.80;99.90
8953;DHT22;4511;50.890;8.054;2023-07-31T02:34:25;15.80;99.90
8953;DHT22;4511;50.890;8.054;2023-07-31T02:36:53;15.80;99.90
8953;DHT22;4511;50.890;8.054;2023-07-31T02:39:20;15.90;99.90
8953;DHT22;4511;50.890;8.054;2023-07-31T02:41:47;15.90;99.90
8953;DHT22;4511;50.890;8.054;2023-07-31T02:44:14;15.80;99.90
8953;DHT22;4511;50.890;8.054;2023-07-31T02:46:41;15.80;99.90
8953;DHT22;4511;50.890;8.054;2023-07-31T02:49:07;15.90;99.90
8953;DHT22;4511;50.890;8.054;2023-07-31T02:51:34;15.80;99.90
8953;DHT22;4511;50.890;8.054;2023-07-31T02:54:02;15.70;99.90
8953;DHT22;4511;50.890;8.054;2023-07-31T02:56:29;15.80;99.90
8953;DHT22;4511;50.890;8.054;2023-07-31T02:58:56;15.70;99.90
8953;DHT22;4511;50.890;8.054;2023-07-31T03:01:23;15.70;99.90
8953;DHT22;4511;50.890;8.054;2023-07-31T03:03:50;15.70;99.90
8953;DHT22;4511;50.890;8.054;2023-07-31T03:06:16;15.70;99.90
8953;DHT22;4511;50.890;8.054;2023-07-31T03:08:43;15.80;99.90
8953;DHT22;4511;50.890;8.054;2023-07-31T03:11:11;15.80;99.90
8953;DHT22;4511;50.890;8.054;2023-07-31T03:13:38;15.70;99.90
8953;DHT22;4511;50.890;8.054;2023-07-31T03:16:05;15.80;99.90
8953;DHT22;4511;50.890;8.054;2023-07-31T03:18:32;15.80;99.90
8953;DHT22;4511;50.890;8.054;2023-07-31T03:20:59;15.80;99.90
8953;DHT22;4511;50.890;8.054;2023-07-31T03:23:25;15.80;99.90
8953;DHT22;4511;50.890;8.054;2023-07-31T03:25:57;15.80;99.90
8953;DHT22;4511;50.890;8.054;2023-07-31T03:28:25;15.80;99.90
8953;DHT22;4511;50.890;8.054;2023-07-31T03:30:52;15.80;99.90
8953;DHT22;4511;50.890;8.054;2023-07-31T03:33:19;15.70;99.90
8953;DHT22;4511;50.890;8.054;2023-07-31T03:35:46;15.70;99.90
8953;DHT22;4511;50.890;8.054;2023-07-31T03:38:13;15.70;99.90
8953;DHT22;4511;50.890;8.054;2023-07-31T03:40:40;15.80;99.90
8953;DHT22;4511;50.890;8.054;2023-07-31T03:43:06;15.80;99.90
8953;DHT22;4511;50.890;8.054;2023-07-31T03:45:35;15.80;99.90
8953;DHT22;4511;50.890;8.054;2023-07-31T03:48:03;15.80;99.90
8953;DHT22;4511;50.890;8.054;2023-07-31T03:50:30;15.80;99.90
8953;DHT22;4511;50.890;8.054;2023-07-31T03:52:57;15.90;99.90
8953;DHT22;4511;50.890;8.054;2023-07-31T03:55:24;15.90;99.90
8953;DHT22;4511;50.890;8.054;2023-07-31T03:57:50;15.90;99.90
8953;DHT22;4511;50.890;8.054;2023-07-31T04:00:17;16.00;99.90
8953;DHT22;4511;50.890;8.054;2023-07-31T04:02:46;16.00;99.90
8953;DHT22;4511;50.890;8.054;2023-07-31T04:05:12;16.10;99.90
8953;DHT22;4511;50.890;8.054;2023-07-31T04:07:39;16.10;99.90
8953;DHT22;4511;50.890;8.054;2023-07-31T04:10:07;16.00;99.90
8953;DHT22;4511;50.890;8.054;2023-07-31T04:12:33;16.10;99.90
8953;DHT22;4511;50.890;8.054;2023-07-31T04:15:00;16.10;99.90
8953;DHT22;4511;50.890;8.054;2023-07-31T04:17:27;16.10;99.90
8953;DHT22;4511;50.890;8.054;2023-07-31T04:19:55;16.10;99.90
8953;DHT22;4511;50.890;8.054;2023-07-31T04:22:22;16.20;99.90
8953;DHT22;4511;50.890;8.054;2023-07-31T04:24:49;16.20;99.90
8953;DHT22;4511;50.890;8.054;2023-07-31T04:27:15;16.10;99.90
8953;DHT22;4511;50.890;8.054;2023-07-31T04:29:42;16.20;99.90
8953;DHT22;4511;50.890;8.054;2023-07-31T04:32:11;16.20;99.90
8953;DHT22;4511;50.890;8.054;2023-07-31T04:34:38;16.20;99.90
8953;DHT22;4511;50.890;8.054;2023-07-31T04:37:06;16.20;99.90
8953;DHT22;4511;50.890;8.054;2023-07-31T04:39:33;16.20;99.90
8953;DHT22;4511;50.890;8.054;2023-07-31T04:42:00;16.20;99.90
8953;DHT22;4511;50.890;8.054;2023-07-31T04:44:27;16.00;99.90
8953;DHT22;4511;50.890;8.054;2023-07-31T04:46:53;16.10;99.90
8953;DHT22;4511;50.890;8.054;2023-07-31T04:49:20;16.00;99.90
8953;DHT22;4511;50.890;8.054;2023-07-31T04:51:47;16.00;99.90
8953;DHT22;4511;50.890;8.054;2023-07-31T04:54:15;16.10;99.90
8953;DHT22;4511;50.890;8.054;2023-07-31T04:56:42;16.10;99.90
8953;DHT22;4511;50.890;8.054;2023-07-31T04:59:09;16.10;99.90
8953;DHT22;4511;50.890;8.054;2023-07-31T05:01:36;16.20;99.90
8953;DHT22;4511;50.890;8.054;2023-07-31T05:04:03;16.30;99.90
8953;DHT22;4511;50.890;8.054;2023-07-31T05:06:30;16.30;99.90
8953;DHT22;4511;50.890;8.054;2023-07-31T05:08:56;16.30;99.90
8953;DHT22;4511;50.890;8.054;2023-07-31T05:11:24;16.40;99.90
8953;DHT22;4511;50.890;8.054;2023-07-31T05:13:51;16.40;99.90
8953;DHT22;4511;50.890;8.054;2023-07-31T05:16:18;16.40;99.90
8953;DHT22;4511;50.890;8.054;2023-07-31T05:18:45;16.30;99.90
8953;DHT22;4511;50.890;8.054;2023-07-31T05:21:11;16.30;99.90
8953;DHT22;4511;50.890;8.054;2023-07-31T05:23:38;16.40;99.90
8953;DHT22;4511;50.890;8.054;2023-07-31T05:26:05;16.40;99.90
8953;DHT22;4511;50.890;8.054;2023-07-31T05:28:35;16.50;99.90
8953;DHT22;4511;50.890;8.054;2023-07-31T05:31:03;16.50;99.90
8953;DHT22;4511;50.890;8.054;2023-07-31T05:33:30;16.50;99.90
8953;DHT22;4511;50.890;8.054;2023-07-31T05:35:57;16.50;99.90
8953;DHT22;4511;50.890;8.054;2023-07-31T05:38:24;16.50;99.90
8953;DHT22;4511;50.890;8.054;2023-07-31T05:40:51;16.50;99.90
8953;DHT22;4511;50.890;8.054;2023-07-31T05:43:18;16.50;99.90
8953;DHT22;4511;50.890;8.054;2023-07-31T05:45:47;16.40;99.90
8953;DHT22;4511;50.890;8.054;2023-07-31T05:48:14;16.30;99.90
8953;DHT22;4511;50.890;8.054;2023-07-31T05:50:40;16.40;99.90
8953;DHT22;4511;50.890;8.054;2023-07-31T05:53:07;16.40;99.90
8953;DHT22;4511;50.890;8.054;2023-07-31T05:55:35;16.30;99.90
8953;DHT22;4511;50.890;8.054;2023-07-31T05:58:02;16.40;99.90
8953;DHT22;4511;50.890;8.054;2023-07-31T06:00:29;16.40;99.90
8953;DHT22;4511;50.890;8.054;2023-07-31T06:02:57;16.50;99.90
8953;DHT22;4511;50.890;8.054;2023-07-31T06:05:24;16.50;99.90
8953;DHT22;4511;50.890;8.054;2023-07-31T06:07:51;16.50;99.90
8953;DHT22;4511;50.890;8.054;2023-07-31T06:10:18;16.60;99.90
8953;DHT22;4511;50.890;8.054;2023-07-31T06:12:45;16.60;99.90
8953;DHT22;4511;50.890;8.054;2023-07-31T06:15:12;16.70;99.90
8953;DHT22;4511;50.890;8.054;2023-07-31T06:17:38;16.80;99.90
8953;DHT22;4511;50.890;8.054;2023-07-31T06:20:08;16.70;99.90
8953;DHT22;4511;50.890;8.054;2023-07-31T06:22:35;16.70;99.90
8953;DHT22;4511;50.890;8.054;2023-07-31T06:25:02;16.70;99.90
8953;DHT22;4511;50.890;8.054;2023-07-31T06:27:29;16.80;99.90
8953;DHT22;4511;50.890;8.054;2023-07-31T06:29:56;16.80;99.90
8953;DHT22;4511;50.890;8.054;2023-07-31T06:32:23;16.90;99.90
8953;DHT22;4511;50.890;8.054;2023-07-31T06:34:51;16.90;99.90
8953;DHT22;4511;50.890;8.054;2023-07-31T06:37:21;17.00;99.90
8953;DHT22;4511;50.890;8.054;2023-07-31T06:39:47;17.10;99.90
8953;DHT22;4511;50.890;8.054;2023-07-31T06:42:14;17.10;99.90
8953;DHT22;4511;50.890;8.054;2023-07-31T06:44:41;17.10;99.90
8953;DHT22;4511;50.890;8.054;2023-07-31T06:47:08;17.30;99.90
8953;DHT22;4511;50.890;8.054;2023-07-31T06:49:35;17.20;99.90
8953;DHT22;4511;50.890;8.054;2023-07-31T06:52:01;17.20;99.90
8953;DHT22;4511;50.890;8.054;2023-07-31T06:54:30;17.30;99.90
8953;DHT22;4511;50.890;8.054;2023-07-31T06:56:56;17.30;99.90
8953;DHT22;4511;50.890;8.054;2023-07-31T06:59:23;17.30;99.90
8953;DHT22;4511;50.890;8.054;2023-07-31T07:01:50;17.30;99.90
8953;DHT22;4511;50.890;8.054;2023-07-31T07:04:17;17.10;99.90
8953;DHT22;4511;50.890;8.054;2023-07-31T07:06:43;17.10;99.90
8953;DHT22;4511;50.890;8.054;2023-07-31T07:09:10;17.10;99.90
8953;DHT22;4511;50.890;8.054;2023-07-31T07:11:38;17.10;99.90
8953;DHT22;4511;50.890;8.054;2023-07-31T07:14:05;17.10;99.90
8953;DHT22;4511;50.890;8.054;2023-07-31T07:16:32;17.10;99.90
8953;DHT22;4511;50.890;8.054;2023-07-31T07:18:58;17.10;99.90
8953;DHT22;4511;50.890;8.054;2023-07-31T07:21:25;17.00;99.90
8953;DHT22;4511;50.890;8.054;2023-07-31T07:23:52;17.10;99.90
8953;DHT22;4511;50.890;8.054;2023-07-31T07:26:20;17.00;99.90
8953;DHT22;4511;50.890;8.054;2023-07-31T07:28:48;17.00;99.90
8953;DHT22;4511;50.890;8.054;2023-07-31T07:31:14;17.00;99.90
8953;DHT22;4511;50.890;8.054;2023-07-31T07:33:41;17.10;99.90
8953;DHT22;4511;50.890;8.054;2023-07-31T07:36:08;17.10;99.90
8953;DHT22;4511;50.890;8.054;2023-07-31T07:38:35;17.20;99.90
8953;DHT22;4511;50.890;8.054;2023-07-31T07:41:04;17.20;99.90
8953;DHT22;4511;50.890;8.054;2023-07-31T07:43:30;17.30;99.90
8953;DHT22;4511;50.890;8.054;2023-07-31T07:45:58;17.20;99.90
8953;DHT22;4511;50.890;8.054;2023-07-31T07:48:25;17.40;99.90
8953;DHT22;4511;50.890;8.054;2023-07-31T07:50:52;17.50;99.90
8953;DHT22;4511;50.890;8.054;2023-07-31T07:53:19;17.50;99.90
8953;DHT22;4511;50.890;8.054;2023-07-31T07:55:46;17.50;99.90
8953;DHT22;4511;50.890;8.054;2023-07-31T07:58:13;17.50;99.90
8953;DHT22;4511;50.890;8.054;2023-07-31T08:00:40;17.50;99.90
8953;DHT22;4511;50.890;8.054;2023-07-31T08:03:08;17.60;99.90
8953;DHT22;4511;50.890;8.054;2023-07-31T08:05:36;17.80;99.90
8953;DHT22;4511;50.890;8.054;2023-07-31T08:08:03;18.00;99.90
8953;DHT22;4511;50.890;8.054;2023-07-31T08:10:30;18.00;99.90
8953;DHT22;4511;50.890;8.054;2023-07-31T08:12:56;18.10;99.90
8953;DHT22;4511;50.890;8.054;2023-07-31T08:15:23;18.10;99.90
8953;DHT22;4511;50.890;8.054;2023-07-31T08:17:50;18.10;99.90
8953;DHT22;4511;50.890;8.054;2023-07-31T08:20:18;17.80;99.90
8953;DHT22;4511;50.890;8.054;2023-07-31T08:22:45;17.90;99.90
8953;DHT22;4511;50.890;8.054;2023-07-31T08:25:12;17.80;99.90
8953;DHT22;4511;50.890;8.054;2023-07-31T08:27:42;17.90;99.90
8953;DHT22;4511;50.890;8.054;2023-07-31T08:30:11;17.90;99.90
8953;DHT22;4511;50.890;8.054;2023-07-31T08:32:38;17.90;99.90
8953;DHT22;4511;50.890;8.054;2023-07-31T08:35:05;17.80;99.90
8953;DHT22;4511;50.890;8.054;2023-07-31T08:37:33;17.90;99.90
8953;DHT22;4511;50.890;8.054;2023-07-31T08:40:00;17.80;99.90
8953;DHT22;4511;50.890;8.054;2023-07-31T08:42:26;17.80;99.90
8953;DHT22;4511;50.890;8.054;2023-07-31T08:44:54;17.60;99.90
8953;DHT22;4511;50.890;8.054;2023-07-31T08:47:22;17.60;99.90
8953;DHT22;4511;50.890;8.054;2023-07-31T08:49:49;17.60;99.90
8953;DHT22;4511;50.890;8.054;2023-07-31T08:52:17;17.50;99.90
8953;DHT22;4511;50.890;8.054;2023-07-31T08:54:45;17.50;99.90
8953;DHT22;4511;50.890;8.054;2023-07-31T08:57:13;17.50;99.90
8953;DHT22;4511;50.890;8.054;2023-07-31T08:59:40;17.60;99.90
8953;DHT22;4511;50.890;8.054;2023-07-31T09:02:08;17.60;99.90
8953;DHT22;4511;50.890;8.054;2023-07-31T09:04:35;17.50;99.90
8953;DHT22;4511;50.890;8.054;2023-07-31T09:07:03;17.20;99.90
8953;DHT22;4511;50.890;8.054;2023-07-31T09:09:31;17.30;99.90
8953;DHT22;4511;50.890;8.054;2023-07-31T09:11:59;17.20;99.90
8953;DHT22;4511;50.890;8.054;2023-07-31T09:14:26;17.20;99.90
8953;DHT22;4511;50.890;8.054;2023-07-31T09:16:54;17.10;99.90
8953;DHT22;4511;50.890;8.054;2023-07-31T09:19:28;17.00;99.90
8953;DHT22;4511;50.890;8.054;2023-07-31T09:21:56;16.70;99.90
8953;DHT22;4511;50.890;8.054;2023-07-31T09:24:27;16.80;99.90
8953;DHT22;4511;50.890;8.054;2023-07-31T09:26:55;16.70;99.90
8953;DHT22;4511;50.890;8.054;2023-07-31T09:29:23;16.50;99.90
8953;DHT22;4511;50.890;8.054;2023-07-31T09:31:52;16.50;99.90
8953;DHT22;4511;50.890;8.054;2023-07-31T09:34:20;16.60;99.90
8953;DHT22;4511;50.890;8.054;2023-07-31T09:36:48;16.70;99.90
8953;DHT22;4511;50.890;8.054;2023-07-31T09:39:17;16.70;99.90
8953;DHT22;4511;50.890;8.054;2023-07-31T09:41:48;16.80;99.90
8953;DHT22;4511;50.890;8.054;2023-07-31T09:44:19;16.70;99.90
8953;DHT22;4511;50.890;8.054;2023-07-31T09:46:48;16.70;99.90
8953;DHT22;4511;50.890;8.054;2023-07-31T09:49:15;16.80;99.90
8953;DHT22;4511;50.890;8.054;2023-07-31T09:51:42;16.70;99.90
8953;DHT22;4511;50.890;8.054;2023-07-31T09:54:10;16.80;99.90
8953;DHT22;4511;50.890;8.054;2023-07-31T09:56:42;16.90;99.90
8953;DHT22;4511;50.890;8.054;2023-07-31T09:59:11;16.90;99.90
8953;DHT22;4511;50.890;8.054;2023-07-31T10:01:39;17.00;99.90
8953;DHT22;4511;50.890;8.054;2023-07-31T10:04:09;16.80;99.90
8953;DHT22;4511;50.890;8.054;2023-07-31T10:06:37;16.90;99.90
8953;DHT22;4511;50.890;8.054;2023-07-31T10:09:06;16.90;99.90
8953;DHT22;4511;50.890;8.054;2023-07-31T10:11:38;17.00;99.90
8953;DHT22;4511;50.890;8.054;2023-07-31T10:14:07;17.10;99.90
8953;DHT22;4511;50.890;8.054;2023-07-31T10:16:39;17.20;99.90
8953;DHT22;4511;50.890;8.054;2023-07-31T10:19:06;17.40;99.90
8953;DHT22;4511;50.890;8.054;2023-07-31T10:21:36;17.40;99.90
8953;DHT22;4511;50.890;8.054;2023-07-31T10:24:04;17.40;99.90
8953;DHT22;4511;50.890;8.054;2023-07-31T10:26:31;17.30;99.90
8953;DHT22;4511;50.890;8.054;2023-07-31T10:28:59;17.40;99.90
8953;DHT22;4511;50.890;8.054;2023-07-31T10:31:27;17.40;99.90
8953;DHT22;4511;50.890;8.054;2023-07-31T10:33:54;17.40;99.90
8953;DHT22;4511;50.890;8.054;2023-07-31T10:36:22;17.50;99.90
8953;DHT22;4511;50.890;8.054;2023-07-31T10:38:50;17.40;99.90
8953;DHT22;4511;50.890;8.054;2023-07-31T10:43:46;17.80;99.90
8953;DHT22;4511;50.890;8.054;2023-07-31T10:46:14;17.70;99.90
8953;DHT22;4511;50.890;8.054;2023-07-31T10:48:41;17.60;99.90
8953;DHT22;4511;50.890;8.054;2023-07-31T10:51:10;17.50;99.90
8953;DHT22;4511;50.890;8.054;2023-07-31T10:53:38;17.60;99.90
8953;DHT22;4511;50.890;8.054;2023-07-31T10:56:07;17.60;99.90
8953;DHT22;4511;50.890;8.054;2023-07-31T10:58:35;17.60;99.90
8953;DHT22;4511;50.890;8.054;2023-07-31T11:01:03;17.70;99.90
8953;DHT22;4511;50.890;8.054;2023-07-31T11:03:45;17.60;99.90
8953;DHT22;4511;50.890;8.054;2023-07-31T11:06:12;17.60;99.90
8953;DHT22;4511;50.890;8.054;2023-07-31T11:08:42;17.60;99.90
8953;DHT22;4511;50.890;8.054;2023-07-31T11:11:12;17.70;99.90
8953;DHT22;4511;50.890;8.054;2023-07-31T11:13:44;17.70;99.90
8953;DHT22;4511;50.890;8.054;2023-07-31T11:16:11;17.60;99.90
8953;DHT22;4511;50.890;8.054;2023-07-31T11:18:39;17.70;99.90
8953;DHT22;4511;50.890;8.054;2023-07-31T11:21:07;17.80;99.90
8953;DHT22;4511;50.890;8.054;2023-07-31T11:23:34;17.70;99.90
8953;DHT22;4511;50.890;8.054;2023-07-31T11:26:05;17.80;99.90
8953;DHT22;4511;50.890;8.054;2023-07-31T11:28:34;17.60;99.90
8953;DHT22;4511;50.890;8.054;2023-07-31T11:31:01;17.70;99.90
8953;DHT22;4511;50.890;8.054;2023-07-31T11:33:28;17.80;99.90
8953;DHT22;4511;50.890;8.054;2023-07-31T11:35:55;17.70;99.90
8953;DHT22;4511;50.890;8.054;2023-07-31T11:38:23;17.80;99.90
8953;DHT22;4511;50.890;8.054;2023-07-31T11:40:51;17.80;99.90
8953;DHT22;4511;50.890;8.054;2023-07-31T11:43:18;17.90;99.90
8953;DHT22;4511;50.890;8.054;2023-07-31T11:45:49;18.00;99.90
8953;DHT22;4511;50.890;8.054;2023-07-31T11:48:20;18.10;99.90
8953;DHT22;4511;50.890;8.054;2023-07-31T11:50:49;18.10;99.90
8953;DHT22;4511;50.890;8.054;2023-07-31T11:53:18;18.10;99.90
8953;DHT22;4511;50.890;8.054;2023-07-31T11:55:46;18.20;99.90
8953;DHT22;4511;50.890;8.054;2023-07-31T11:58:14;18.20;99.90
8953;DHT22;4511;50.890;8.054;2023-07-31T12:00:41;18.30;99.90
8953;DHT22;4511;50.890;8.054;2023-07-31T12:05:37;18.30;99.90
8953;DHT22;4511;50.890;8.054;2023-07-31T12:08:09;18.40;99.90
8953;DHT22;4511;50.890;8.054;2023-07-31T12:10:36;18.40;99.90
8953;DHT22;4511;50.890;8.054;2023-07-31T12:13:04;18.20;99.90
8953;DHT22;4511;50.890;8.054;2023-07-31T12:15:39;18.30;99.90
8953;DHT22;4511;50.890;8.054;2023-07-31T12:18:09;18.40;99.90
8953;DHT22;4511;50.890;8.054;2023-07-31T12:20:44;18.40;99.90
8953;DHT22;4511;50.890;8.054;2023-07-31T12:23:15;18.30;99.90
8953;DHT22;4511;50.890;8.054;2023-07-31T12:25:42;18.30;99.90
8953;DHT22;4511;50.890;8.054;2023-07-31T12:28:09;18.30;99.90
8953;DHT22;4511;50.890;8.054;2023-07-31T12:30:39;18.40;99.90
8953;DHT22;4511;50.890;8.054;2023-07-31T12:33:07;18.30;99.90
8953;DHT22;4511;50.890;8.054;2023-07-31T12:35:41;18.40;99.90
8953;DHT22;4511;50.890;8.054;2023-07-31T12:38:08;18.30;99.90
8953;DHT22;4511;50.890;8.054;2023-07-31T12:40:37;18.20;99.90
8953;DHT22;4511;50.890;8.054;2023-07-31T12:43:04;18.00;99.90
8953;DHT22;4511;50.890;8.054;2023-07-31T12:45:31;18.20;99.90
8953;DHT22;4511;50.890;8.054;2023-07-31T12:47:58;18.10;99.90
8953;DHT22;4511;50.890;8.054;2023-07-31T12:50:25;18.30;99.90
8953;DHT22;4511;50.890;8.054;2023-07-31T12:52:53;18.30;99.90
8953;DHT22;4511;50.890;8.054;2023-07-31T12:55:21;18.30;99.90
8953;DHT22;4511;50.890;8.054;2023-07-31T12:57:47;18.20;99.90
8953;DHT22;4511;50.890;8.054;2023-07-31T13:00:14;18.00;99.90
8953;DHT22;4511;50.890;8.054;2023-07-31T13:02:41;17.80;99.90
8953;DHT22;4511;50.890;8.054;2023-07-31T13:05:08;17.70;99.90
8953;DHT22;4511;50.890;8.054;2023-07-31T13:07:35;17.60;99.90
8953;DHT22;4511;50.890;8.054;2023-07-31T13:10:04;17.50;99.90
8953;DHT22;4511;50.890;8.054;2023-07-31T13:12:31;17.60;99.90
8953;DHT22;4511;50.890;8.054;2023-07-31T13:14:58;17.80;99.90
8953;DHT22;4511;50.890;8.054;2023-07-31T13:17:24;17.90;99.90
8953;DHT22;4511;50.890;8.054;2023-07-31T13:19:51;18.10;99.90
8953;DHT22;4511;50.890;8.054;2023-07-31T13:22:18;18.20;99.90
8953;DHT22;4511;50.890;8.054;2023-07-31T13:24:45;18.30;99.90
8953;DHT22;4511;50.890;8.054;2023-07-31T13:27:13;18.20;99.90
8953;DHT22;4511;50.890;8.054;2023-07-31T13:29:42;18.10;99.90
8953;DHT22;4511;50.890;8.054;2023-07-31T13:32:09;18.30;99.90
8953;DHT22;4511;50.890;8.054;2023-07-31T13:34:35;18.40;99.90
8953;DHT22;4511;50.890;8.054;2023-07-31T13:37:03;18.40;99.90
8953;DHT22;4511;50.890;8.054;2023-07-31T13:39:31;18.40;99.90
8953;DHT22;4511;50.890;8.054;2023-07-31T13:41:58;18.40;99.90
8953;DHT22;4511;50.890;8.054;2023-07-31T13:44:26;18.20;99.90
8953;DHT22;4511;50.890;8.054;2023-07-31T13:46:53;18.10;99.90
8953;DHT22;4511;50.890;8.054;2023-07-31T13:49:19;18.10;99.90
8953;DHT22;4511;50.890;8.054;2023-07-31T13:51:46;18.20;99.90
8953;DHT22;4511;50.890;8.054;2023-07-31T13:54:13;18.30;99.90
8953;DHT22;4511;50.890;8.054;2023-07-31T13:56:41;18.20;99.90
8953;DHT22;4511;50.890;8.054;2023-07-31T13:59:08;18.20;99.90
8953;DHT22;4511;50.890;8.054;2023-07-31T14:01:36;18.20;99.90
8953;DHT22;4511;50.890;8.054;2023-07-31T14:04:03;18.20;99.90
8953;DHT22;4511;50.890;8.054;2023-07-31T14:06:30;18.30;99.90
8953;DHT22;4511;50.890;8.054;2023-07-31T14:08:56;18.30;99.90
8953;DHT22;4511;50.890;8.054;2023-07-31T14:11:23;18.20;99.90
8953;DHT22;4511;50.890;8.054;2023-07-31T14:13:50;18.30;99.90
8953;DHT22;4511;50.890;8.054;2023-07-31T14:16:18;18.30;99.90
8953;DHT22;4511;50.890;8.054;2023-07-31T14:18:46;18.30;99.90
8953;DHT22;4511;50.890;8.054;2023-07-31T14:21:13;18.30;99.90
8953;DHT22;4511;50.890;8.054;2023-07-31T14:23:40;18.40;99.90
8953;DHT22;4511;50.890;8.054;2023-07-31T14:26:06;18.40;99.90
8953;DHT22;4511;50.890;8.054;2023-07-31T14:28:33;18.50;99.90
8953;DHT22;4511;50.890;8.054;2023-07-31T14:31:00;18.50;99.90
8953;DHT22;4511;50.890;8.054;2023-07-31T14:33:27;18.80;99.90
8953;DHT22;4511;50.890;8.054;2023-07-31T14:35:55;19.00;99.90
8953;DHT22;4511;50.890;8.054;2023-07-31T14:38:22;19.30;99.90
8953;DHT22;4511;50.890;8.054;2023-07-31T14:40:49;19.50;99.90
8953;DHT22;4511;50.890;8.054;2023-07-31T14:43:16;19.60;99.90
8953;DHT22;4511;50.890;8.054;2023-07-31T14:45:42;19.70;99.90
8953;DHT22;4511;50.890;8.054;2023-07-31T14:48:11;19.70;99.90
8953;DHT22;4511;50.890;8.054;2023-07-31T14:50:38;19.60;99.90
8953;DHT22;4511;50.890;8.054;2023-07-31T14:53:06;19.20;99.90
8953;DHT22;4511;50.890;8.054;2023-07-31T14:55:33;19.30;99.90
8953;DHT22;4511;50.890;8.054;2023-07-31T14:58:00;19.10;99.90
8953;DHT22;4511;50.890;8.054;2023-07-31T15:00:27;19.10;99.90
8953;DHT22;4511;50.890;8.054;2023-07-31T15:02:54;18.80;99.90
8953;DHT22;4511;50.890;8.054;2023-07-31T15:05:20;18.90;99.90
8953;DHT22;4511;50.890;8.054;2023-07-31T15:07:47;18.80;99.90
8953;DHT22;4511;50.890;8.054;2023-07-31T15:10:15;18.80;99.90
8953;DHT22;4511;50.890;8.054;2023-07-31T15:12:42;18.80;99.90
8953;DHT22;4511;50.890;8.054;2023-07-31T15:15:09;18.90;99.90
8953;DHT22;4511;50.890;8.054;2023-07-31T15:17:36;19.00;99.90
8953;DHT22;4511;50.890;8.054;2023-07-31T15:20:03;19.00;99.90
8953;DHT22;4511;50.890;8.054;2023-07-31T15:22:33;19.00;99.90
8953;DHT22;4511;50.890;8.054;2023-07-31T15:25:01;19.00;99.90
8953;DHT22;4511;50.890;8.054;2023-07-31T15:27:29;18.90;99.90
8953;DHT22;4511;50.890;8.054;2023-07-31T15:29:56;18.80;99.90
8953;DHT22;4511;50.890;8.054;2023-07-31T15:32:23;18.80;99.90
8953;DHT22;4511;50.890;8.054;2023-07-31T15:34:50;18.80;99.90
8953;DHT22;4511;50.890;8.054;2023-07-31T15:37:17;18.80;99.90
8953;DHT22;4511;50.890;8.054;2023-07-31T15:39:44;18.70;99.90
8953;DHT22;4511;50.890;8.054;2023-07-31T15:42:11;18.70;99.90
8953;DHT22;4511;50.890;8.054;2023-07-31T15:44:39;18.60;99.90
8953;DHT22;4511;50.890;8.054;2023-07-31T15:47:06;18.60;99.90
8953;DHT22;4511;50.890;8.054;2023-07-31T15:49:33;18.50;99.90
8953;DHT22;4511;50.890;8.054;2023-07-31T15:51:59;18.50;99.90
8953;DHT22;4511;50.890;8.054;2023-07-31T15:54:27;18.40;99.90
8953;DHT22;4511;50.890;8.054;2023-07-31T15:56:53;18.30;99.90
8953;DHT22;4511;50.890;8.054;2023-07-31T15:59:20;18.30;99.90
8953;DHT22;4511;50.890;8.054;2023-07-31T16:01:48;18.40;99.90
8953;DHT22;4511;50.890;8.054;2023-07-31T16:04:15;18.30;99.90
8953;DHT22;4511;50.890;8.054;2023-07-31T16:06:42;18.20;99.90
8953;DHT22;4511;50.890;8.054;2023-07-31T16:09:09;18.30;99.90